Taylorsville, KY

2:00 AM EST on February 28, 2015 (GMT -0500)
Fox Lair | Change Station
CLOSE
Current Station
Personal Weather Station
Location: Kentucky, KY
Elevation: 728 ft
Nearby Weather Stations

Elev 728 ft 38.11 °N, 85.38 °W | Updated 18 seconds ago

Mostly Cloudy
Mostly Cloudy
17.1 °F
Feels Like 17 °F
N
0.0
Wind Variable Wind from NNE
Gusts 0.0 mph

Today
High -- | Low -- °F
--% Chance of Precip.
Yesterday
High -- | Low -- °F
Precip. -- in
7:14 AM 6:33 PM
Waxing Gibbous, 75% visible
Pressure 30.68 in
Visibility 10.0 miles
Clouds Overcast 11000 ft
Windchill 17 °F
Dew Point -4 °F
Humidity 38%
Rainfall 0.00 in
Snow Depth Not available.
UV 0.0 out of 12
Pollen 1.40 out of 12
Air Quality Not available.
Flu Activity Not available.
METAR KLOU 280653Z AUTO 06005KT 10SM OVC110 M07/M16 A3065 RMK AO2 SLP388 T10721161

More Conditions Fewer Conditions

Pressure 30.68 in
Visibility 10.0 miles
Clouds Overcast 11000 ft
Windchill 17 °F
Dew Point -4 °F
Humidity 38%
Rainfall 0.00 in
Snow Depth Not available.
UV 0.0 out of 12
Pollen 1.40 out of 12
Air Quality Not available.
Flu Activity Not available.
METAR KLOU 280653Z AUTO 06005KT 10SM OVC110 M07/M16 A3065 RMK AO2 SLP388 T10721161

More Conditions Fewer Conditions

10-Day Weather Forecast

Almanac

Astronomy

Feb. 28, 2015 Rise Set
Actual Time
Civil Twilight
Nautical Twilight
Astronomical Twilight
Moon
Length of Visible Light
Length of Day
Tomorrow will be .
, % of the Moon is Illuminated

Today's Extremes

State Highs State Lows

Community

WunderPhotos

Upload Photos

1,800,979 photos uploaded!

WunderBlogs® & News

Nearby

Air Quality

  Air Quality AQ Index Pollutant
Not available.

Snow Depth

Station Depth Elevation

Earthquake Activity

City Distance Mag. Time & Date
Minimum magnitude displayed is 2.5.

Coastal Water Temperatures

Place Temperature

Nearby Weather Stations